sensor_id;sensor_type;location;lat;lon;timestamp;temperature;humidity
22795;DHT22;11564;50.920;11.612;2023-04-23T00:01:57;13.40;99.90
22795;DHT22;11564;50.920;11.612;2023-04-23T00:04:25;13.30;99.90
22795;DHT22;11564;50.920;11.612;2023-04-23T00:06:51;13.30;99.90
22795;DHT22;11564;50.920;11.612;2023-04-23T00:09:17;13.20;99.90
22795;DHT22;11564;50.920;11.612;2023-04-23T00:11:44;13.20;99.90
22795;DHT22;11564;50.920;11.612;2023-04-23T00:14:10;13.20;99.90
22795;DHT22;11564;50.920;11.612;2023-04-23T00:16:38;13.20;99.90
22795;DHT22;11564;50.920;11.612;2023-04-23T00:19:03;13.20;99.90
22795;DHT22;11564;50.920;11.612;2023-04-23T00:21:29;13.20;99.90
22795;DHT22;11564;50.920;11.612;2023-04-23T00:23:55;13.20;99.90
22795;DHT22;11564;50.920;11.612;2023-04-23T00:26:21;13.20;99.90
22795;DHT22;11564;50.920;11.612;2023-04-23T00:28:46;13.20;99.90
22795;DHT22;11564;50.920;11.612;2023-04-23T00:31:12;13.20;99.90
22795;DHT22;11564;50.920;11.612;2023-04-23T00:33:38;13.20;99.90
22795;DHT22;11564;50.920;11.612;2023-04-23T00:36:03;13.20;99.90
22795;DHT22;11564;50.920;11.612;2023-04-23T00:38:29;13.10;99.90
22795;DHT22;11564;50.920;11.612;2023-04-23T00:40:55;13.10;99.90
22795;DHT22;11564;50.920;11.612;2023-04-23T00:43:20;13.10;99.90
22795;DHT22;11564;50.920;11.612;2023-04-23T00:45:47;13.10;99.90
22795;DHT22;11564;50.920;11.612;2023-04-23T00:48:13;13.10;99.90
22795;DHT22;11564;50.920;11.612;2023-04-23T00:50:41;13.10;99.90
22795;DHT22;11564;50.920;11.612;2023-04-23T00:53:06;13.10;99.90
22795;DHT22;11564;50.920;11.612;2023-04-23T00:55:33;12.90;99.90
22795;DHT22;11564;50.920;11.612;2023-04-23T00:57:59;12.80;99.90
22795;DHT22;11564;50.920;11.612;2023-04-23T01:00:25;12.80;99.90
22795;DHT22;11564;50.920;11.612;2023-04-23T01:02:51;12.80;99.90
22795;DHT22;11564;50.920;11.612;2023-04-23T01:05:18;12.80;99.90
22795;DHT22;11564;50.920;11.612;2023-04-23T01:07:45;12.80;99.90
22795;DHT22;11564;50.920;11.612;2023-04-23T01:10:11;12.80;99.90
22795;DHT22;11564;50.920;11.612;2023-04-23T01:12:37;12.80;99.90
22795;DHT22;11564;50.920;11.612;2023-04-23T01:15:03;12.80;99.90
22795;DHT22;11564;50.920;11.612;2023-04-23T01:17:30;12.80;99.90
22795;DHT22;11564;50.920;11.612;2023-04-23T01:19:56;12.80;99.90
22795;DHT22;11564;50.920;11.612;2023-04-23T01:22:22;12.80;99.90
22795;DHT22;11564;50.920;11.612;2023-04-23T01:24:48;12.80;99.90
22795;DHT22;11564;50.920;11.612;2023-04-23T01:27:14;12.80;99.90
22795;DHT22;11564;50.920;11.612;2023-04-23T01:29:40;12.80;99.90
22795;DHT22;11564;50.920;11.612;2023-04-23T01:32:06;12.80;99.90
22795;DHT22;11564;50.920;11.612;2023-04-23T01:34:34;12.80;99.90
22795;DHT22;11564;50.920;11.612;2023-04-23T01:37:01;12.70;99.90
22795;DHT22;11564;50.920;11.612;2023-04-23T01:39:27;12.70;99.90
22795;DHT22;11564;50.920;11.612;2023-04-23T01:41:53;12.70;99.90
22795;DHT22;11564;50.920;11.612;2023-04-23T01:44:19;12.70;99.90
22795;DHT22;11564;50.920;11.612;2023-04-23T01:46:45;12.70;99.90
22795;DHT22;11564;50.920;11.612;2023-04-23T01:49:11;12.70;99.90
22795;DHT22;11564;50.920;11.612;2023-04-23T01:51:37;12.70;99.90
22795;DHT22;11564;50.920;11.612;2023-04-23T01:54:02;12.60;99.90
22795;DHT22;11564;50.920;11.612;2023-04-23T01:56:28;12.60;99.90
22795;DHT22;11564;50.920;11.612;2023-04-23T01:58:55;12.60;99.90
22795;DHT22;11564;50.920;11.612;2023-04-23T02:01:21;12.60;99.90
22795;DHT22;11564;50.920;11.612;2023-04-23T02:03:48;12.60;99.90
22795;DHT22;11564;50.920;11.612;2023-04-23T02:06:14;12.60;99.90
22795;DHT22;11564;50.920;11.612;2023-04-23T02:08:40;12.50;99.90
22795;DHT22;11564;50.920;11.612;2023-04-23T02:11:06;12.60;99.90
22795;DHT22;11564;50.920;11.612;2023-04-23T02:13:32;12.60;99.90
22795;DHT22;11564;50.920;11.612;2023-04-23T02:15:58;12.50;99.90
22795;DHT22;11564;50.920;11.612;2023-04-23T02:18:24;12.60;99.90
22795;DHT22;11564;50.920;11.612;2023-04-23T02:20:49;12.50;99.90
22795;DHT22;11564;50.920;11.612;2023-04-23T02:23:15;12.50;99.90
22795;DHT22;11564;50.920;11.612;2023-04-23T02:25:41;12.50;99.90
22795;DHT22;11564;50.920;11.612;2023-04-23T02:28:07;12.50;99.90
22795;DHT22;11564;50.920;11.612;2023-04-23T02:30:36;12.50;99.90
22795;DHT22;11564;50.920;11.612;2023-04-23T02:33:02;12.50;99.90
22795;DHT22;11564;50.920;11.612;2023-04-23T02:35:28;12.50;99.90
22795;DHT22;11564;50.920;11.612;2023-04-23T02:37:54;12.50;99.90
22795;DHT22;11564;50.920;11.612;2023-04-23T02:40:20;12.50;99.90
22795;DHT22;11564;50.920;11.612;2023-04-23T02:42:46;12.50;99.90
22795;DHT22;11564;50.920;11.612;2023-04-23T02:45:12;12.40;99.90
22795;DHT22;11564;50.920;11.612;2023-04-23T02:47:38;12.50;99.90
22795;DHT22;11564;50.920;11.612;2023-04-23T02:50:04;12.40;99.90
22795;DHT22;11564;50.920;11.612;2023-04-23T02:52:31;12.30;99.90
22795;DHT22;11564;50.920;11.612;2023-04-23T02:54:58;12.30;99.90
22795;DHT22;11564;50.920;11.612;2023-04-23T02:57:24;12.30;99.90
22795;DHT22;11564;50.920;11.612;2023-04-23T02:59:49;12.30;99.90
22795;DHT22;11564;50.920;11.612;2023-04-23T03:02:15;12.30;99.90
22795;DHT22;11564;50.920;11.612;2023-04-23T03:04:41;12.30;99.90
22795;DHT22;11564;50.920;11.612;2023-04-23T03:07:07;12.30;99.90
22795;DHT22;11564;50.920;11.612;2023-04-23T03:09:32;12.30;99.90
22795;DHT22;11564;50.920;11.612;2023-04-23T03:11:58;12.30;99.90
22795;DHT22;11564;50.920;11.612;2023-04-23T03:14:24;12.30;99.90
22795;DHT22;11564;50.920;11.612;2023-04-23T03:16:49;12.30;99.90
22795;DHT22;11564;50.920;11.612;2023-04-23T03:19:15;12.20;99.90
22795;DHT22;11564;50.920;11.612;2023-04-23T03:21:41;12.30;99.90
22795;DHT22;11564;50.920;11.612;2023-04-23T03:24:07;12.30;99.90
22795;DHT22;11564;50.920;11.612;2023-04-23T03:26:32;12.30;99.90
22795;DHT22;11564;50.920;11.612;2023-04-23T03:29:00;12.30;99.90
22795;DHT22;11564;50.920;11.612;2023-04-23T03:31:25;12.30;99.90
22795;DHT22;11564;50.920;11.612;2023-04-23T03:33:51;12.30;99.90
22795;DHT22;11564;50.920;11.612;2023-04-23T03:36:17;12.30;99.90
22795;DHT22;11564;50.920;11.612;2023-04-23T03:38:42;12.30;99.90
22795;DHT22;11564;50.920;11.612;2023-04-23T03:41:08;12.30;99.90
22795;DHT22;11564;50.920;11.612;2023-04-23T03:43:34;12.30;99.90
22795;DHT22;11564;50.920;11.612;2023-04-23T03:45:59;12.30;99.90
22795;DHT22;11564;50.920;11.612;2023-04-23T03:48:25;12.30;99.90
22795;DHT22;11564;50.920;11.612;2023-04-23T03:50:51;12.30;99.90
22795;DHT22;11564;50.920;11.612;2023-04-23T03:53:17;12.30;99.90
22795;DHT22;11564;50.920;11.612;2023-04-23T03:55:43;12.30;99.90
22795;DHT22;11564;50.920;11.612;2023-04-23T03:58:08;12.30;99.90
22795;DHT22;11564;50.920;11.612;2023-04-23T04:00:35;12.30;99.90
22795;DHT22;11564;50.920;11.612;2023-04-23T04:03:00;12.30;99.90
22795;DHT22;11564;50.920;11.612;2023-04-23T04:05:27;12.30;99.90
22795;DHT22;11564;50.920;11.612;2023-04-23T04:07:54;12.30;99.90
22795;DHT22;11564;50.920;11.612;2023-04-23T04:10:20;12.30;99.90
22795;DHT22;11564;50.920;11.612;2023-04-23T04:12:45;12.30;99.90
22795;DHT22;11564;50.920;11.612;2023-04-23T04:15:13;12.30;99.90
22795;DHT22;11564;50.920;11.612;2023-04-23T04:17:39;12.30;99.90
22795;DHT22;11564;50.920;11.612;2023-04-23T04:20:06;12.30;99.90
22795;DHT22;11564;50.920;11.612;2023-04-23T04:22:35;12.30;99.90
22795;DHT22;11564;50.920;11.612;2023-04-23T04:25:01;12.30;99.90
22795;DHT22;11564;50.920;11.612;2023-04-23T04:27:27;12.30;99.90
22795;DHT22;11564;50.920;11.612;2023-04-23T04:29:53;12.30;99.90
22795;DHT22;11564;50.920;11.612;2023-04-23T04:32:18;12.30;99.90
22795;DHT22;11564;50.920;11.612;2023-04-23T04:34:44;12.30;99.90
22795;DHT22;11564;50.920;11.612;2023-04-23T04:37:10;12.30;99.90
22795;DHT22;11564;50.920;11.612;2023-04-23T04:39:36;12.30;99.90
22795;DHT22;11564;50.920;11.612;2023-04-23T04:42:01;12.30;99.90
22795;DHT22;11564;50.920;11.612;2023-04-23T04:44:28;12.30;99.90
22795;DHT22;11564;50.920;11.612;2023-04-23T04:46:54;12.40;99.90
22795;DHT22;11564;50.920;11.612;2023-04-23T04:49:20;12.40;99.90
22795;DHT22;11564;50.920;11.612;2023-04-23T04:51:46;12.40;99.90
22795;DHT22;11564;50.920;11.612;2023-04-23T04:54:12;12.50;99.90
22795;DHT22;11564;50.920;11.612;2023-04-23T04:56:38;12.70;99.90
22795;DHT22;11564;50.920;11.612;2023-04-23T04:59:04;12.80;99.90
22795;DHT22;11564;50.920;11.612;2023-04-23T05:01:30;12.90;99.90
22795;DHT22;11564;50.920;11.612;2023-04-23T05:03:58;12.90;99.90
22795;DHT22;11564;50.920;11.612;2023-04-23T05:06:24;12.90;99.90
22795;DHT22;11564;50.920;11.612;2023-04-23T05:08:49;12.90;99.90
22795;DHT22;11564;50.920;11.612;2023-04-23T05:11:16;12.80;99.90
22795;DHT22;11564;50.920;11.612;2023-04-23T05:13:43;12.80;99.90
22795;DHT22;11564;50.920;11.612;2023-04-23T05:16:09;13.00;99.90
22795;DHT22;11564;50.920;11.612;2023-04-23T05:18:36;12.90;99.90
22795;DHT22;11564;50.920;11.612;2023-04-23T05:21:02;12.90;99.90
22795;DHT22;11564;50.920;11.612;2023-04-23T05:23:28;13.10;99.90
22795;DHT22;11564;50.920;11.612;2023-04-23T05:25:53;13.10;99.90
22795;DHT22;11564;50.920;11.612;2023-04-23T05:28:21;13.20;99.90
22795;DHT22;11564;50.920;11.612;2023-04-23T05:30:47;13.20;99.90
22795;DHT22;11564;50.920;11.612;2023-04-23T05:33:13;13.20;99.90
22795;DHT22;11564;50.920;11.612;2023-04-23T05:35:40;13.30;99.90
22795;DHT22;11564;50.920;11.612;2023-04-23T05:38:06;13.30;99.90
22795;DHT22;11564;50.920;11.612;2023-04-23T05:40:32;13.30;99.90
22795;DHT22;11564;50.920;11.612;2023-04-23T05:42:58;13.40;99.90
22795;DHT22;11564;50.920;11.612;2023-04-23T05:45:23;13.60;99.90
22795;DHT22;11564;50.920;11.612;2023-04-23T05:47:49;13.70;99.90
22795;DHT22;11564;50.920;11.612;2023-04-23T05:50:16;13.70;99.90
22795;DHT22;11564;50.920;11.612;2023-04-23T05:52:42;13.90;99.90
22795;DHT22;11564;50.920;11.612;2023-04-23T05:55:07;14.00;99.90
22795;DHT22;11564;50.920;11.612;2023-04-23T05:57:37;14.00;99.90
22795;DHT22;11564;50.920;11.612;2023-04-23T06:00:04;14.10;99.90
22795;DHT22;11564;50.920;11.612;2023-04-23T06:02:30;14.20;99.90
22795;DHT22;11564;50.920;11.612;2023-04-23T06:04:58;14.20;99.90
22795;DHT22;11564;50.920;11.612;2023-04-23T06:07:23;14.30;99.90
22795;DHT22;11564;50.920;11.612;2023-04-23T06:09:49;14.40;99.90
22795;DHT22;11564;50.920;11.612;2023-04-23T06:12:15;14.40;99.90
22795;DHT22;11564;50.920;11.612;2023-04-23T06:14:40;14.30;99.90
22795;DHT22;11564;50.920;11.612;2023-04-23T06:17:06;14.40;99.90
22795;DHT22;11564;50.920;11.612;2023-04-23T06:19:32;14.40;99.90
22795;DHT22;11564;50.920;11.612;2023-04-23T06:21:57;14.50;99.90
22795;DHT22;11564;50.920;11.612;2023-04-23T06:24:23;14.60;99.90
22795;DHT22;11564;50.920;11.612;2023-04-23T06:26:49;14.60;99.90
22795;DHT22;11564;50.920;11.612;2023-04-23T06:29:15;14.60;99.90
22795;DHT22;11564;50.920;11.612;2023-04-23T06:31:40;14.40;99.90
22795;DHT22;11564;50.920;11.612;2023-04-23T06:34:06;14.50;99.90
22795;DHT22;11564;50.920;11.612;2023-04-23T06:36:32;14.40;99.90
22795;DHT22;11564;50.920;11.612;2023-04-23T06:38:57;14.30;99.90
22795;DHT22;11564;50.920;11.612;2023-04-23T06:41:23;14.40;99.90
22795;DHT22;11564;50.920;11.612;2023-04-23T06:43:49;14.20;99.90
22795;DHT22;11564;50.920;11.612;2023-04-23T06:46:14;14.20;99.90
22795;DHT22;11564;50.920;11.612;2023-04-23T06:48:40;14.20;99.90
22795;DHT22;11564;50.920;11.612;2023-04-23T06:51:06;14.20;99.90
22795;DHT22;11564;50.920;11.612;2023-04-23T06:53:32;14.30;99.90
22795;DHT22;11564;50.920;11.612;2023-04-23T06:55:58;14.10;99.90
22795;DHT22;11564;50.920;11.612;2023-04-23T06:58:24;14.00;99.90
22795;DHT22;11564;50.920;11.612;2023-04-23T07:00:56;13.40;99.90
22795;DHT22;11564;50.920;11.612;2023-04-23T07:03:24;12.50;99.90
22795;DHT22;11564;50.920;11.612;2023-04-23T07:05:50;11.80;99.90
22795;DHT22;11564;50.920;11.612;2023-04-23T07:08:16;11.40;99.90
22795;DHT22;11564;50.920;11.612;2023-04-23T07:10:42;11.30;99.90
22795;DHT22;11564;50.920;11.612;2023-04-23T07:13:07;11.30;99.90
22795;DHT22;11564;50.920;11.612;2023-04-23T07:15:33;11.30;99.90
22795;DHT22;11564;50.920;11.612;2023-04-23T07:17:58;11.60;99.90
22795;DHT22;11564;50.920;11.612;2023-04-23T07:20:25;11.70;99.90
22795;DHT22;11564;50.920;11.612;2023-04-23T07:22:51;11.80;99.90
22795;DHT22;11564;50.920;11.612;2023-04-23T07:25:17;11.90;99.90
22795;DHT22;11564;50.920;11.612;2023-04-23T07:27:42;12.00;99.90
22795;DHT22;11564;50.920;11.612;2023-04-23T07:30:08;12.20;99.90
22795;DHT22;11564;50.920;11.612;2023-04-23T07:32:34;12.40;99.90
22795;DHT22;11564;50.920;11.612;2023-04-23T07:35:00;12.70;99.90
22795;DHT22;11564;50.920;11.612;2023-04-23T07:37:25;12.90;99.90
22795;DHT22;11564;50.920;11.612;2023-04-23T07:39:51;13.10;99.90
22795;DHT22;11564;50.920;11.612;2023-04-23T07:42:18;13.40;99.90
22795;DHT22;11564;50.920;11.612;2023-04-23T07:44:43;13.10;99.90
22795;DHT22;11564;50.920;11.612;2023-04-23T07:47:09;13.20;99.90
22795;DHT22;11564;50.920;11.612;2023-04-23T07:49:35;13.40;99.90
22795;DHT22;11564;50.920;11.612;2023-04-23T07:52:01;13.30;99.90
22795;DHT22;11564;50.920;11.612;2023-04-23T07:54:26;13.10;99.90
22795;DHT22;11564;50.920;11.612;2023-04-23T07:56:52;13.20;99.90
22795;DHT22;11564;50.920;11.612;2023-04-23T07:59:18;13.10;99.90
22795;DHT22;11564;50.920;11.612;2023-04-23T08:01:44;13.10;99.90
22795;DHT22;11564;50.920;11.612;2023-04-23T08:04:10;13.30;99.90
22795;DHT22;11564;50.920;11.612;2023-04-23T08:06:36;13.50;99.90
22795;DHT22;11564;50.920;11.612;2023-04-23T08:09:02;13.60;99.90
22795;DHT22;11564;50.920;11.612;2023-04-23T08:11:31;13.50;99.90
22795;DHT22;11564;50.920;11.612;2023-04-23T08:13:57;13.30;99.90
22795;DHT22;11564;50.920;11.612;2023-04-23T08:16:23;13.30;99.90
22795;DHT22;11564;50.920;11.612;2023-04-23T08:18:48;13.40;99.90
22795;DHT22;11564;50.920;11.612;2023-04-23T08:21:14;13.60;99.90
22795;DHT22;11564;50.920;11.612;2023-04-23T08:23:40;13.70;99.90
22795;DHT22;11564;50.920;11.612;2023-04-23T08:26:06;14.00;99.90
22795;DHT22;11564;50.920;11.612;2023-04-23T08:28:31;14.20;99.90
22795;DHT22;11564;50.920;11.612;2023-04-23T08:30:57;14.20;99.90
22795;DHT22;11564;50.920;11.612;2023-04-23T08:33:22;14.00;99.90
22795;DHT22;11564;50.920;11.612;2023-04-23T08:35:48;14.00;99.90
22795;DHT22;11564;50.920;11.612;2023-04-23T08:38:14;14.30;99.90
22795;DHT22;11564;50.920;11.612;2023-04-23T08:40:41;14.70;99.90
22795;DHT22;11564;50.920;11.612;2023-04-23T08:43:15;15.20;99.90
22795;DHT22;11564;50.920;11.612;2023-04-23T08:45:45;15.30;99.90
22795;DHT22;11564;50.920;11.612;2023-04-23T08:48:11;15.40;99.90
22795;DHT22;11564;50.920;11.612;2023-04-23T08:50:37;15.40;99.90
22795;DHT22;11564;50.920;11.612;2023-04-23T08:53:07;15.40;99.90
22795;DHT22;11564;50.920;11.612;2023-04-23T08:55:33;15.40;99.90
22795;DHT22;11564;50.920;11.612;2023-04-23T08:58:00;15.60;99.90
22795;DHT22;11564;50.920;11.612;2023-04-23T09:00:27;15.70;99.90
22795;DHT22;11564;50.920;11.612;2023-04-23T09:02:53;15.50;99.90
22795;DHT22;11564;50.920;11.612;2023-04-23T09:05:20;15.80;99.90
22795;DHT22;11564;50.920;11.612;2023-04-23T09:07:46;15.90;99.90
22795;DHT22;11564;50.920;11.612;2023-04-23T09:10:12;15.80;99.90
22795;DHT22;11564;50.920;11.612;2023-04-23T09:12:40;15.90;99.90
22795;DHT22;11564;50.920;11.612;2023-04-23T09:15:06;16.20;99.60
22795;DHT22;11564;50.920;11.612;2023-04-23T09:17:37;16.30;99.20
22795;DHT22;11564;50.920;11.612;2023-04-23T09:20:05;15.80;98.30
22795;DHT22;11564;50.920;11.612;2023-04-23T09:25:08;15.40;99.10
22795;DHT22;11564;50.920;11.612;2023-04-23T09:27:34;15.50;98.80
22795;DHT22;11564;50.920;11.612;2023-04-23T09:30:03;15.90;99.80
22795;DHT22;11564;50.920;11.612;2023-04-23T09:32:41;16.10;97.90
22795;DHT22;11564;50.920;11.612;2023-04-23T09:35:09;16.20;97.60
22795;DHT22;11564;50.920;11.612;2023-04-23T09:37:35;16.30;97.90
22795;DHT22;11564;50.920;11.612;2023-04-23T09:40:04;16.30;97.80
22795;DHT22;11564;50.920;11.612;2023-04-23T09:42:34;16.60;97.40
22795;DHT22;11564;50.920;11.612;2023-04-23T09:45:06;16.90;98.80
22795;DHT22;11564;50.920;11.612;2023-04-23T09:47:39;17.10;97.00
22795;DHT22;11564;50.920;11.612;2023-04-23T09:50:05;17.20;97.20
22795;DHT22;11564;50.920;11.612;2023-04-23T09:52:32;17.30;97.00
22795;DHT22;11564;50.920;11.612;2023-04-23T09:55:01;17.90;97.70
22795;DHT22;11564;50.920;11.612;2023-04-23T09:57:27;18.20;96.00
22795;DHT22;11564;50.920;11.612;2023-04-23T09:59:55;18.00;95.80
22795;DHT22;11564;50.920;11.612;2023-04-23T10:02:26;18.40;96.20
22795;DHT22;11564;50.920;11.612;2023-04-23T10:04:53;18.70;94.50
22795;DHT22;11564;50.920;11.612;2023-04-23T10:07:19;18.50;94.20
22795;DHT22;11564;50.920;11.612;2023-04-23T10:09:46;18.40;93.30
22795;DHT22;11564;50.920;11.612;2023-04-23T10:12:12;18.00;93.50
22795;DHT22;11564;50.920;11.612;2023-04-23T10:14:40;18.40;93.50
22795;DHT22;11564;50.920;11.612;2023-04-23T10:17:08;18.20;91.50
22795;DHT22;11564;50.920;11.612;2023-04-23T10:19:36;18.60;92.70
22795;DHT22;11564;50.920;11.612;2023-04-23T10:22:04;17.90;91.10
22795;DHT22;11564;50.920;11.612;2023-04-23T10:24:34;17.90;91.90
22795;DHT22;11564;50.920;11.612;2023-04-23T10:27:02;17.80;92.20
22795;DHT22;11564;50.920;11.612;2023-04-23T10:29:30;18.50;91.80
22795;DHT22;11564;50.920;11.612;2023-04-23T10:32:06;18.70;91.00
22795;DHT22;11564;50.920;11.612;2023-04-23T10:34:32;18.30;90.50
22795;DHT22;11564;50.920;11.612;2023-04-23T10:36:59;18.10;91.70
22795;DHT22;11564;50.920;11.612;2023-04-23T10:39:30;18.20;90.90
22795;DHT22;11564;50.920;11.612;2023-04-23T10:41:56;18.40;90.20
22795;DHT22;11564;50.920;11.612;2023-04-23T10:44:35;18.60;90.50
22795;DHT22;11564;50.920;11.612;2023-04-23T10:47:02;18.40;90.50
22795;DHT22;11564;50.920;11.612;2023-04-23T10:49:32;18.40;89.60
22795;DHT22;11564;50.920;11.612;2023-04-23T10:52:03;18.10;90.10
22795;DHT22;11564;50.920;11.612;2023-04-23T10:54:33;17.80;90.00
22795;DHT22;11564;50.920;11.612;2023-04-23T10:57:02;17.80;90.20
22795;DHT22;11564;50.920;11.612;2023-04-23T10:59:30;18.10;90.70
22795;DHT22;11564;50.920;11.612;2023-04-23T11:01:57;17.70;90.70
22795;DHT22;11564;50.920;11.612;2023-04-23T11:04:28;18.10;90.40
22795;DHT22;11564;50.920;11.612;2023-04-23T11:07:06;18.20;90.70
22795;DHT22;11564;50.920;11.612;2023-04-23T11:09:42;18.20;90.50
22795;DHT22;11564;50.920;11.612;2023-04-23T11:14:53;18.40;90.00
22795;DHT22;11564;50.920;11.612;2023-04-23T11:20:24;18.70;89.80
22795;DHT22;11564;50.920;11.612;2023-04-23T11:22:51;18.80;89.40
22795;DHT22;11564;50.920;11.612;2023-04-23T11:25:25;18.60;89.90
22795;DHT22;11564;50.920;11.612;2023-04-23T11:27:54;18.60;88.40
22795;DHT22;11564;50.920;11.612;2023-04-23T11:30:23;18.90;87.70
22795;DHT22;11564;50.920;11.612;2023-04-23T11:32:51;18.20;87.60
22795;DHT22;11564;50.920;11.612;2023-04-23T11:35:18;18.90;88.70
22795;DHT22;11564;50.920;11.612;2023-04-23T11:37:46;18.70;87.90
22795;DHT22;11564;50.920;11.612;2023-04-23T11:40:14;18.70;88.70
22795;DHT22;11564;50.920;11.612;2023-04-23T11:42:44;18.70;88.80
22795;DHT22;11564;50.920;11.612;2023-04-23T11:47:51;18.50;85.50
22795;DHT22;11564;50.920;11.612;2023-04-23T11:50:24;18.20;85.40
22795;DHT22;11564;50.920;11.612;2023-04-23T11:52:50;18.60;87.60
22795;DHT22;11564;50.920;11.612;2023-04-23T11:55:17;18.30;85.80
22795;DHT22;11564;50.920;11.612;2023-04-23T11:57:45;18.40;87.80
22795;DHT22;11564;50.920;11.612;2023-04-23T12:02:40;19.10;87.00
22795;DHT22;11564;50.920;11.612;2023-04-23T12:05:13;19.30;87.90
22795;DHT22;11564;50.920;11.612;2023-04-23T12:07:39;19.50;86.00
22795;DHT22;11564;50.920;11.612;2023-04-23T12:10:05;19.40;86.70
22795;DHT22;11564;50.920;11.612;2023-04-23T12:12:34;19.70;85.90
22795;DHT22;11564;50.920;11.612;2023-04-23T12:15:04;19.10;84.90
22795;DHT22;11564;50.920;11.612;2023-04-23T12:17:31;19.20;84.80
22795;DHT22;11564;50.920;11.612;2023-04-23T12:19:56;19.40;84.60
22795;DHT22;11564;50.920;11.612;2023-04-23T12:22:26;19.50;84.60
22795;DHT22;11564;50.920;11.612;2023-04-23T12:24:52;19.50;83.10
22795;DHT22;11564;50.920;11.612;2023-04-23T12:27:19;19.20;83.80
22795;DHT22;11564;50.920;11.612;2023-04-23T12:29:47;19.80;83.70
22795;DHT22;11564;50.920;11.612;2023-04-23T12:32:14;19.20;82.40
22795;DHT22;11564;50.920;11.612;2023-04-23T12:34:54;19.40;84.50
22795;DHT22;11564;50.920;11.612;2023-04-23T12:37:24;19.50;85.00
22795;DHT22;11564;50.920;11.612;2023-04-23T12:39:51;19.60;82.80
22795;DHT22;11564;50.920;11.612;2023-04-23T12:42:17;20.00;81.90
22795;DHT22;11564;50.920;11.612;2023-04-23T12:44:43;20.40;80.60
22795;DHT22;11564;50.920;11.612;2023-04-23T12:47:09;20.80;80.30
22795;DHT22;11564;50.920;11.612;2023-04-23T12:49:44;20.90;80.00
22795;DHT22;11564;50.920;11.612;2023-04-23T12:52:11;20.70;79.70
22795;DHT22;11564;50.920;11.612;2023-04-23T12:54:38;20.70;79.50
22795;DHT22;11564;50.920;11.612;2023-04-23T12:57:05;20.10;80.40
22795;DHT22;11564;50.920;11.612;2023-04-23T12:59:32;20.70;82.90
22795;DHT22;11564;50.920;11.612;2023-04-23T13:01:58;21.30;80.90
22795;DHT22;11564;50.920;11.612;2023-04-23T13:04:28;21.30;79.80
22795;DHT22;11564;50.920;11.612;2023-04-23T13:06:54;21.80;81.80
22795;DHT22;11564;50.920;11.612;2023-04-23T13:09:20;22.40;81.20
22795;DHT22;11564;50.920;11.612;2023-04-23T13:11:46;24.50;78.80
22795;DHT22;11564;50.920;11.612;2023-04-23T13:14:14;26.00;74.70
22795;DHT22;11564;50.920;11.612;2023-04-23T13:16:41;27.20;73.40
22795;DHT22;11564;50.920;11.612;2023-04-23T13:19:06;25.80;69.50
22795;DHT22;11564;50.920;11.612;2023-04-23T13:21:32;25.00;68.10
22795;DHT22;11564;50.920;11.612;2023-04-23T13:23:58;24.60;71.00
22795;DHT22;11564;50.920;11.612;2023-04-23T13:26:23;27.40;69.40
22795;DHT22;11564;50.920;11.612;2023-04-23T13:28:49;32.10;62.20
22795;DHT22;11564;50.920;11.612;2023-04-23T13:31:15;33.30;56.50
22795;DHT22;11564;50.920;11.612;2023-04-23T13:33:41;32.80;54.40
22795;DHT22;11564;50.920;11.612;2023-04-23T13:36:07;33.30;50.60
22795;DHT22;11564;50.920;11.612;2023-04-23T13:38:33;32.00;51.50
22795;DHT22;11564;50.920;11.612;2023-04-23T13:40:58;30.40;54.30
22795;DHT22;11564;50.920;11.612;2023-04-23T13:43:24;28.40;55.60
22795;DHT22;11564;50.920;11.612;2023-04-23T13:45:52;27.70;56.40
22795;DHT22;11564;50.920;11.612;2023-04-23T13:48:18;28.00;56.60
22795;DHT22;11564;50.920;11.612;2023-04-23T13:50:44;30.20;53.80
22795;DHT22;11564;50.920;11.612;2023-04-23T13:53:10;30.90;51.70
22795;DHT22;11564;50.920;11.612;2023-04-23T13:55:37;31.70;50.50
22795;DHT22;11564;50.920;11.612;2023-04-23T13:58:03;32.70;47.90
22795;DHT22;11564;50.920;11.612;2023-04-23T14:00:29;34.10;46.90
22795;DHT22;11564;50.920;11.612;2023-04-23T14:02:55;35.00;46.80
22795;DHT22;11564;50.920;11.612;2023-04-23T14:05:21;32.30;45.50
22795;DHT22;11564;50.920;11.612;2023-04-23T14:07:46;30.70;49.10
22795;DHT22;11564;50.920;11.612;2023-04-23T14:10:12;30.10;48.20
22795;DHT22;11564;50.920;11.612;2023-04-23T14:12:39;29.00;47.50
22795;DHT22;11564;50.920;11.612;2023-04-23T14:15:07;27.00;50.90
22795;DHT22;11564;50.920;11.612;2023-04-23T14:17:33;26.30;52.40
22795;DHT22;11564;50.920;11.612;2023-04-23T14:19:59;25.80;54.50
22795;DHT22;11564;50.920;11.612;2023-04-23T14:22:25;25.90;55.20
22795;DHT22;11564;50.920;11.612;2023-04-23T14:25:00;26.60;54.10
22795;DHT22;11564;50.920;11.612;2023-04-23T14:27:25;30.30;53.10
22795;DHT22;11564;50.920;11.612;2023-04-23T14:29:56;33.60;45.80
22795;DHT22;11564;50.920;11.612;2023-04-23T14:32:22;37.20;45.80
22795;DHT22;11564;50.920;11.612;2023-04-23T14:34:49;39.30;42.10
22795;DHT22;11564;50.920;11.612;2023-04-23T14:37:18;38.70;39.30
22795;DHT22;11564;50.920;11.612;2023-04-23T14:39:44;36.60;39.80
22795;DHT22;11564;50.920;11.612;2023-04-23T14:42:11;35.70;41.00
22795;DHT22;11564;50.920;11.612;2023-04-23T14:44:37;34.60;40.00
22795;DHT22;11564;50.920;11.612;2023-04-23T14:47:03;32.40;42.40
22795;DHT22;11564;50.920;11.612;2023-04-23T14:49:31;29.80;44.70
22795;DHT22;11564;50.920;11.612;2023-04-23T14:51:56;28.40;46.70
22795;DHT22;11564;50.920;11.612;2023-04-23T14:54:22;28.50;48.40
22795;DHT22;11564;50.920;11.612;2023-04-23T14:56:49;28.30;47.30
22795;DHT22;11564;50.920;11.612;2023-04-23T14:59:15;28.30;49.60
22795;DHT22;11564;50.920;11.612;2023-04-23T15:01:41;29.20;46.80
22795;DHT22;11564;50.920;11.612;2023-04-23T15:04:09;31.80;46.10
22795;DHT22;11564;50.920;11.612;2023-04-23T15:06:35;33.50;43.50
22795;DHT22;11564;50.920;11.612;2023-04-23T15:09:01;35.20;40.80
22795;DHT22;11564;50.920;11.612;2023-04-23T15:11:26;33.20;41.40
22795;DHT22;11564;50.920;11.612;2023-04-23T15:16:30;34.00;39.80
22795;DHT22;11564;50.920;11.612;2023-04-23T15:18:57;36.40;39.40
22795;DHT22;11564;50.920;11.612;2023-04-23T15:21:23;37.50;38.10
22795;DHT22;11564;50.920;11.612;2023-04-23T15:23:49;38.80;39.00
22795;DHT22;11564;50.920;11.612;2023-04-23T15:26:15;38.80;36.10
22795;DHT22;11564;50.920;11.612;2023-04-23T15:28:41;37.50;38.10